METAR Data
IDs: Format: Raw Decoded Include TAF

Data at: 1942 UTC 23 Sep 2018

METAR for:PAKF (False Pass Arpt, AK, US)
Text:PAKF 231656Z AUTO 24003KT 10SM FEW050 OVC110 06/04 A2977 RMK AO2 SLP080 T00610044
Temperature: 6.1°C ( 43°F)
Dewpoint: 4.4°C ( 40°F) [RH = 89%]
Pressure (altimeter):29.77 inches Hg (1008.2 mb) [Sea level pressure: 1008.0 mb]
Winds:from the WSW (240 degrees) at 3 MPH (3 knots; 1.5 m/s)
Visibility:10 or more sm (16+ km)
Ceiling:11000 feet AGL
Clouds: few clouds at 5000 feet AGL, overcast cloud deck at 11000 feet AGL
QC Flag:automated observation with no human augmentation
Text:PAKF 231556Z AUTO 00000KT 10SM BKN120 06/03 A2978 RMK AO2 SLP086 T00610033
Temperature: 6.1°C ( 43°F)
Dewpoint: 3.3°C ( 38°F) [RH = 82%]
Pressure (altimeter):29.78 inches Hg (1008.5 mb) [Sea level pressure: 1008.6 mb]
Winds:calm
Visibility:10 or more sm (16+ km)
Ceiling:12000 feet AGL
Clouds: broken clouds at 12000 feet AGL
QC Flag:automated observation with no human augmentation
Text:PAKF 231456Z AUTO 27004KT 10SM BKN055 06/03 A2981 RMK AO2 SLP093 T00610033 58014
Temperature: 6.1°C ( 43°F)
Dewpoint: 3.3°C ( 38°F) [RH = 82%]
Pressure (altimeter):29.81 inches Hg (1009.6 mb) [Sea level pressure: 1009.3 mb]
Winds:from the W (270 degrees) at 5 MPH (4 knots; 2.1 m/s)
Visibility:10 or more sm (16+ km)
Ceiling:5500 feet AGL
Clouds: broken clouds at 5500 feet AGL
QC Flag:automated observation with no human augmentation
Text:PAKF 231356Z AUTO 25003KT 10SM BKN055 04/02 A2983 RMK AO2 SLP100 T00390022
Temperature: 3.9°C ( 39°F)
Dewpoint: 2.2°C ( 36°F) [RH = 89%]
Pressure (altimeter):29.83 inches Hg (1010.2 mb) [Sea level pressure: 1010.0 mb]
Winds:from the WSW (250 degrees) at 3 MPH (3 knots; 1.5 m/s)
Visibility:10 or more sm (16+ km)
Ceiling:5500 feet AGL
Clouds: broken clouds at 5500 feet AGL
QC Flag:automated observation with no human augmentation

TAF for:PAKF (False Pass Arpt, AK, US)
Text:No data found